Poy Sippi, Wisconsin
Current Conditions -  °F | °C
As of 11:35 PM on Saturday 22 Nov 2014 (Local Time) from KPCZ Reporting Station
Moderate Fog Moderate Fog  
Wind Chill: 40°   Ceiling: 200
Heat Index: 40°   Visibility: 0.25mi
Dew Point: 39°   Wind: 0mph
Humidity: 95%   Direction: NA
Pressure: 29.71"   Gusts: NA
Location:  44.14°N, 89°W
Report Text: KPCZ 230535Z AUTO 00000KT 1/4SM FG OVC002 05/04 A2971 RMK AO2 T00470040
Loading
Personal Weather Stations






























Interactive Weather Map New forecast layout! Learn more

10-Day Weather Forecast

Advertisements
Track Severe Weather on mobile